Murree Weather



Murree's Current Weather

Temprature 13.73o smoke

smoke

Rain: 0 %

Min Temprature12o
Max Temprature14.44o
Humidity66
Wind Speed3.1 m/h
Sun Rise06:22:14
Sun Set17:17:59
Current Time: 28-Oct-2020 03:56:46
Lat/Lon: 33.91, 73.39




Murree's Geo Location



Murree's Weather Forecast

Time Overall Temp Min Temp Max Temp Humidity Wind Speed Rain
28-Oct-2020 (Wed)
05:00:00 clear sky 10.340 6.780 10.340 60 2.84 m/h 0 %
08:00:00 clear sky 12.020 11.550 12.020 47 2.17 m/h 0 %
11:00:00 clear sky 17.170 17.170 17.410 29 2.7 m/h 0 %
14:00:00 clear sky 18.270 18.270 18.310 25 3.53 m/h 0 %
17:00:00 clear sky 11.980 11.980 11.980 38 1.72 m/h 0 %
20:00:00 clear sky 8.380 8.380 8.380 48 1.87 m/h 0 %
23:00:00 clear sky 7.770 7.770 7.770 49 2.8 m/h 0 %
29-Oct-2020 (Thu)
02:00:00 clear sky 7.200 7.200 7.200 51 3.26 m/h 0 %
05:00:00 clear sky 6.800 6.800 6.800 52 3.17 m/h 0 %
08:00:00 clear sky 11.130 11.130 11.130 41 2.41 m/h 0 %
11:00:00 clear sky 17.120 17.120 17.120 27 2.2 m/h 0 %
14:00:00 broken clouds 17.710 17.710 17.710 26 3.15 m/h 0 %
17:00:00 scattered clouds 11.970 11.970 11.970 40 1.53 m/h 0 %
20:00:00 clear sky 8.690 8.690 8.690 49 2.4 m/h 0 %
23:00:00 clear sky 7.840 7.840 7.840 51 3.33 m/h 0 %
30-Oct-2020 (Fri)
02:00:00 clear sky 7.260 7.260 7.260 53 3.51 m/h 0 %
05:00:00 clear sky 6.750 6.750 6.750 54 3.47 m/h 0 %
08:00:00 clear sky 10.910 10.910 10.910 42 2.95 m/h 0 %
11:00:00 clear sky 17.920 17.920 17.920 26 0.7 m/h 0 %
14:00:00 clear sky 18.290 18.290 18.290 24 2.7 m/h 0 %
17:00:00 clear sky 11.960 11.960 11.960 37 1.88 m/h 0 %
20:00:00 clear sky 8.330 8.330 8.330 47 2.61 m/h 0 %
23:00:00 clear sky 7.560 7.560 7.560 48 3.36 m/h 0 %
31-Oct-2020 (Sat)
02:00:00 clear sky 7.010 7.010 7.010 51 3.47 m/h 0 %
05:00:00 clear sky 6.600 6.600 6.600 52 3.37 m/h 0 %
08:00:00 clear sky 10.990 10.990 10.990 40 3.02 m/h 0 %
11:00:00 clear sky 18.600 18.600 18.600 23 0.78 m/h 0 %
14:00:00 clear sky 19.020 19.020 19.020 22 2.8 m/h 0 %
17:00:00 clear sky 12.090 12.090 12.090 37 1.66 m/h 0 %
20:00:00 clear sky 8.780 8.780 8.780 43 2.33 m/h 0 %
23:00:00 clear sky 7.980 7.980 7.980 44 3.2 m/h 0 %
01-Nov-2020 (Sun)
02:00:00 clear sky 7.280 7.280 7.280 46 3.22 m/h 0 %
05:00:00 clear sky 6.870 6.870 6.870 45 3.11 m/h 0 %
08:00:00 clear sky 11.450 11.450 11.450 36 2.74 m/h 0 %
11:00:00 clear sky 18.750 18.750 18.750 23 1.5 m/h 0 %
14:00:00 clear sky 19.170 19.170 19.170 22 2.95 m/h 0 %
17:00:00 clear sky 11.840 11.840 11.840 37 1.27 m/h 0 %
20:00:00 clear sky 8.890 8.890 8.890 43 2.34 m/h 0 %
23:00:00 clear sky 8.050 8.050 8.050 46 3.02 m/h 0 %
02-Nov-2020 (Mon)
02:00:00 clear sky 7.400 7.400 7.400 48 2.9 m/h 0 %

Famous Cities (60)